createdAt,value
2018-05-18T00:00:07.718Z,12.80
2018-05-18T00:02:35.344Z,12.80
2018-05-18T00:05:02.859Z,12.80
2018-05-18T00:07:30.401Z,12.90
2018-05-18T00:09:57.902Z,12.90
2018-05-18T00:12:25.441Z,12.80
2018-05-18T00:14:52.980Z,12.70
2018-05-18T00:17:20.511Z,12.80
2018-05-18T00:19:48.790Z,12.80
2018-05-18T00:22:16.350Z,12.70
2018-05-18T00:24:43.844Z,12.80
2018-05-18T00:27:11.356Z,12.80
2018-05-18T00:29:38.926Z,12.70
2018-05-18T00:32:06.444Z,12.60
2018-05-18T00:34:34.064Z,12.70
2018-05-18T00:37:01.599Z,12.70
2018-05-18T00:39:29.100Z,12.70
2018-05-18T00:41:56.604Z,12.70
2018-05-18T00:44:24.958Z,12.70
2018-05-18T00:46:52.482Z,12.70
2018-05-18T00:49:19.980Z,12.70
2018-05-18T00:51:48.255Z,12.70
2018-05-18T00:54:16.543Z,12.70
2018-05-18T00:56:44.099Z,12.70
2018-05-18T00:59:11.648Z,12.70
2018-05-18T01:01:39.916Z,12.80
2018-05-18T01:04:08.207Z,12.70
2018-05-18T01:06:35.712Z,12.70
2018-05-18T01:09:03.207Z,12.70
2018-05-18T01:11:31.515Z,12.70
2018-05-18T01:13:59.036Z,12.70
2018-05-18T01:16:27.308Z,12.70
2018-05-18T01:18:55.821Z,12.60
2018-05-18T01:21:23.367Z,12.60
2018-05-18T01:23:50.957Z,12.70
2018-05-18T01:26:18.450Z,12.70
2018-05-18T01:28:46.029Z,12.50
2018-05-18T01:31:14.434Z,12.50
2018-05-18T01:33:41.936Z,12.50
2018-05-18T01:36:09.444Z,12.50
2018-05-18T01:38:36.950Z,12.40
2018-05-18T01:41:04.565Z,12.20
2018-05-18T01:43:32.090Z,12.20
2018-05-18T01:46:00.368Z,12.30
2018-05-18T01:48:28.634Z,12.30
2018-05-18T01:50:57.335Z,12.30
2018-05-18T01:53:25.682Z,12.20
2018-05-18T01:55:53.186Z,12.20
2018-05-18T01:58:20.677Z,12.20
2018-05-18T02:00:48.278Z,12.20
2018-05-18T02:03:16.666Z,12.20
2018-05-18T02:05:44.172Z,12.20
2018-05-18T02:08:11.727Z,12.20
2018-05-18T02:10:39.236Z,12.20
2018-05-18T02:13:06.752Z,12.20
2018-05-18T02:15:35.231Z,12.20
2018-05-18T02:18:02.829Z,12.30
2018-05-18T02:20:30.330Z,12.30
2018-05-18T02:22:57.817Z,12.30
2018-05-18T02:25:25.330Z,12.20
2018-05-18T02:27:52.839Z,12.20
2018-05-18T02:30:21.246Z,12.20
2018-05-18T02:32:48.754Z,12.10
2018-05-18T02:35:16.277Z,12.10
2018-05-18T02:37:43.919Z,12.10
2018-05-18T02:40:11.410Z,12.10
2018-05-18T02:42:38.912Z,12.00
2018-05-18T02:45:07.342Z,11.90
2018-05-18T02:47:34.864Z,11.90
2018-05-18T02:50:02.373Z,11.90
2018-05-18T02:52:29.896Z,11.90
2018-05-18T02:54:57.391Z,11.80
2018-05-18T02:57:24.893Z,11.80
2018-05-18T02:59:52.441Z,11.80
2018-05-18T03:02:19.989Z,11.80
2018-05-18T03:04:48.250Z,11.80
2018-05-18T03:07:16.524Z,11.90
2018-05-18T03:09:44.811Z,11.90
2018-05-18T03:12:13.065Z,12.00
2018-05-18T03:14:40.565Z,11.90
2018-05-18T03:17:08.071Z,12.00
2018-05-18T03:19:35.681Z,12.00
2018-05-18T03:22:03.196Z,12.00
2018-05-18T03:24:31.472Z,12.10
2018-05-18T03:26:59.753Z,12.00
2018-05-18T03:29:28.035Z,12.10
2018-05-18T03:31:56.428Z,12.10
2018-05-18T03:34:23.934Z,12.00
2018-05-18T03:36:51.434Z,12.10
2018-05-18T03:39:19.699Z,12.10
2018-05-18T03:41:48.077Z,12.10
2018-05-18T03:44:16.353Z,12.20
2018-05-18T03:46:44.759Z,12.20
2018-05-18T03:49:12.291Z,12.10
2018-05-18T03:51:40.545Z,12.10
2018-05-18T03:54:08.051Z,12.00
2018-05-18T03:56:35.552Z,12.10
2018-05-18T03:59:03.075Z,12.10
2018-05-18T04:01:42.584Z,12.10
2018-05-18T04:04:21.909Z,12.10
2018-05-18T04:07:02.085Z,12.20
2018-05-18T04:09:29.619Z,12.10
2018-05-18T04:11:57.131Z,12.10
2018-05-18T04:14:24.727Z,12.20
2018-05-18T04:16:53.029Z,12.20
2018-05-18T04:19:20.518Z,12.20
2018-05-18T04:21:48.037Z,12.20
2018-05-18T04:24:15.540Z,12.30
2018-05-18T04:26:43.038Z,12.30
2018-05-18T04:29:10.526Z,12.30
2018-05-18T04:31:38.042Z,12.30
2018-05-18T04:34:06.306Z,12.40
2018-05-18T04:36:34.594Z,12.40
2018-05-18T04:39:02.894Z,12.40
2018-05-18T04:41:30.413Z,12.30
2018-05-18T04:43:58.689Z,12.40
2018-05-18T04:46:27.000Z,12.50
2018-05-18T04:48:54.847Z,12.40
2018-05-18T04:51:22.342Z,12.50
2018-05-18T04:53:49.969Z,12.50
2018-05-18T04:56:17.461Z,12.50
2018-05-18T04:58:45.042Z,12.50
2018-05-18T05:01:12.511Z,12.60
2018-05-18T05:03:40.878Z,12.60
2018-05-18T05:06:08.471Z,12.50
2018-05-18T05:08:35.962Z,12.60
2018-05-18T05:11:03.468Z,12.70
2018-05-18T05:13:31.001Z,12.70
2018-05-18T05:15:58.501Z,12.90
2018-05-18T05:18:25.994Z,12.90
2018-05-18T05:20:53.497Z,12.90
2018-05-18T05:23:21.771Z,13.30
2018-05-18T05:25:50.031Z,13.30
2018-05-18T05:28:17.534Z,13.20
2018-05-18T05:30:45.066Z,13.40
2018-05-18T05:33:13.446Z,13.50
2018-05-18T05:35:41.727Z,13.60
2018-05-18T05:38:09.273Z,13.50
2018-05-18T05:40:37.538Z,13.90
2018-05-18T05:43:05.803Z,13.90
2018-05-18T05:45:34.120Z,13.90
2018-05-18T05:48:01.695Z,13.90
2018-05-18T05:50:29.226Z,14.00
2018-05-18T05:52:56.793Z,14.10
2018-05-18T05:55:24.289Z,14.20
2018-05-18T05:57:51.792Z,14.20
2018-05-18T06:00:19.296Z,14.30
2018-05-18T06:02:46.808Z,14.40
2018-05-18T06:05:14.325Z,14.30
2018-05-18T06:07:41.846Z,14.30
2018-05-18T06:10:09.360Z,14.30
2018-05-18T06:12:37.656Z,14.50
2018-05-18T06:15:05.159Z,14.40
2018-05-18T06:17:32.660Z,14.50
2018-05-18T06:20:00.201Z,14.70
2018-05-18T06:22:28.496Z,15.00
2018-05-18T06:24:56.010Z,14.90
2018-05-18T06:27:23.513Z,15.20
2018-05-18T06:29:51.062Z,15.30
2018-05-18T06:32:19.367Z,15.50
2018-05-18T06:34:46.906Z,15.50
2018-05-18T06:37:15.163Z,15.70
2018-05-18T06:39:43.426Z,15.70
2018-05-18T06:42:11.723Z,15.60
2018-05-18T06:44:39.228Z,15.50
2018-05-18T06:47:06.736Z,15.50
2018-05-18T06:49:34.231Z,15.70
2018-05-18T06:52:01.744Z,15.80
2018-05-18T06:54:29.296Z,15.90
2018-05-18T06:56:57.558Z,16.20
2018-05-18T06:59:25.818Z,16.30
2018-05-18T07:01:53.335Z,16.20
2018-05-18T07:04:20.837Z,16.40
2018-05-18T07:06:48.348Z,16.40
2018-05-18T07:09:15.854Z,16.50
2018-05-18T07:11:43.378Z,16.60
2018-05-18T07:14:10.876Z,17.00
2018-05-18T07:16:39.143Z,17.10
2018-05-18T07:19:07.430Z,17.30
2018-05-18T07:21:35.691Z,17.20
2018-05-18T07:24:03.961Z,17.20
2018-05-18T07:26:31.513Z,17.20
2018-05-18T07:28:59.019Z,17.50
2018-05-18T07:31:26.500Z,17.50
2018-05-18T07:33:54.139Z,17.40
2018-05-18T07:36:21.637Z,17.60
2018-05-18T07:38:49.148Z,17.90
2018-05-18T07:41:16.642Z,18.20
2018-05-18T07:43:44.136Z,17.90
2018-05-18T07:46:12.420Z,18.10
2018-05-18T07:48:39.974Z,18.10
2018-05-18T07:51:08.231Z,18.90
2018-05-18T07:53:36.551Z,19.10
2018-05-18T07:56:04.217Z,19.00
2018-05-18T07:58:31.780Z,19.50
2018-05-18T08:00:59.295Z,19.00
2018-05-18T08:03:27.562Z,19.30
2018-05-18T08:05:55.851Z,19.70
2018-05-18T08:08:23.364Z,19.60
2018-05-18T08:10:50.863Z,19.50
2018-05-18T08:13:18.382Z,19.20
2018-05-18T08:15:45.870Z,18.70
2018-05-18T08:18:14.266Z,19.30
2018-05-18T08:20:41.772Z,19.20
2018-05-18T08:23:09.304Z,19.40
2018-05-18T08:25:36.808Z,20.00
2018-05-18T08:28:05.076Z,20.50
2018-05-18T08:30:45.278Z,19.80
2018-05-18T08:33:12.817Z,19.70
2018-05-18T08:35:40.347Z,19.80
2018-05-18T08:38:08.658Z,20.20
2018-05-18T08:40:36.199Z,20.20
2018-05-18T08:43:03.720Z,20.20
2018-05-18T08:45:31.246Z,20.10
2018-05-18T08:47:58.769Z,19.70
2018-05-18T08:50:26.318Z,19.20
2018-05-18T08:52:54.624Z,19.50
2018-05-18T08:55:22.127Z,19.40
2018-05-18T08:57:49.750Z,19.50
2018-05-18T09:00:17.309Z,19.30
2018-05-18T09:02:44.815Z,19.80
2018-05-18T09:05:13.094Z,19.10
2018-05-18T09:07:41.357Z,19.10
2018-05-18T09:10:09.641Z,18.80
2018-05-18T09:12:37.910Z,18.80
2018-05-18T09:15:15.601Z,18.80
2018-05-18T09:17:44.461Z,18.40
2018-05-18T09:20:11.946Z,18.30
2018-05-18T09:22:40.228Z,18.70
2018-05-18T09:25:08.509Z,18.90
2018-05-18T09:27:36.068Z,18.80
2018-05-18T09:30:04.349Z,19.10
2018-05-18T09:32:31.921Z,19.10
2018-05-18T09:34:59.464Z,19.30
2018-05-18T09:37:26.973Z,19.40
2018-05-18T09:39:54.590Z,19.90
2018-05-18T09:42:22.043Z,20.50
2018-05-18T09:44:49.698Z,20.90
2018-05-18T09:47:17.262Z,21.50
2018-05-18T09:49:44.788Z,21.10
2018-05-18T09:52:13.078Z,20.50
2018-05-18T09:54:41.519Z,20.40
2018-05-18T09:57:08.980Z,20.30
2018-05-18T09:59:36.499Z,19.90
2018-05-18T10:02:04.016Z,19.80
2018-05-18T10:04:32.368Z,19.80
2018-05-18T10:07:00.017Z,19.70
2018-05-18T10:09:28.224Z,20.30
2018-05-18T10:11:56.521Z,20.80
2018-05-18T10:14:24.041Z,20.70
2018-05-18T10:16:51.708Z,20.80
2018-05-18T10:19:20.020Z,21.40
2018-05-18T10:21:47.516Z,21.30
2018-05-18T10:24:15.040Z,22.20
2018-05-18T10:26:42.627Z,22.10
2018-05-18T10:29:10.240Z,22.30
2018-05-18T10:31:37.734Z,22.60
2018-05-18T10:34:05.243Z,22.90
2018-05-18T10:36:33.529Z,21.70
2018-05-18T10:39:01.052Z,21.60
2018-05-18T10:41:28.657Z,21.20
2018-05-18T10:43:56.169Z,22.10
2018-05-18T10:46:23.749Z,22.70
2018-05-18T10:48:52.018Z,22.60
2018-05-18T10:51:20.276Z,21.70
2018-05-18T10:53:47.774Z,21.60
2018-05-18T10:56:15.308Z,21.50
2018-05-18T10:58:43.590Z,22.20
2018-05-18T11:01:11.162Z,22.10
2018-05-18T11:03:38.730Z,22.80
2018-05-18T11:06:06.279Z,23.10
2018-05-18T11:08:33.785Z,21.50
2018-05-18T11:11:01.322Z,20.50
2018-05-18T11:13:28.877Z,20.30
2018-05-18T11:15:56.420Z,20.50
2018-05-18T11:18:23.964Z,20.30
2018-05-18T11:20:51.470Z,20.20
2018-05-18T11:23:18.984Z,20.10
2018-05-18T11:25:46.501Z,19.80
2018-05-18T11:28:14.793Z,19.90
2018-05-18T11:30:43.161Z,19.90
2018-05-18T11:33:11.674Z,20.20
2018-05-18T11:35:39.090Z,20.10
2018-05-18T11:38:07.388Z,20.30
2018-05-18T11:40:34.896Z,20.20
2018-05-18T11:43:02.445Z,20.20
2018-05-18T11:45:29.951Z,20.20
2018-05-18T11:47:57.477Z,20.40
2018-05-18T11:50:24.966Z,20.60
2018-05-18T11:52:52.483Z,20.90
2018-05-18T11:55:20.084Z,20.40
2018-05-18T11:57:47.640Z,20.20
2018-05-18T12:00:15.163Z,20.50
2018-05-18T12:02:42.690Z,21.00
2018-05-18T12:05:10.320Z,21.40
2018-05-18T12:07:37.838Z,21.60
2018-05-18T12:10:06.884Z,21.40
2018-05-18T12:12:34.401Z,21.40
2018-05-18T12:15:02.674Z,21.30
2018-05-18T12:17:31.256Z,21.50
2018-05-18T12:19:59.539Z,20.80
2018-05-18T12:22:27.812Z,21.10
2018-05-18T12:24:56.092Z,21.30
2018-05-18T12:27:24.388Z,21.00
2018-05-18T12:29:51.934Z,21.00
2018-05-18T12:32:19.455Z,21.10
2018-05-18T12:34:46.974Z,20.80
2018-05-18T12:37:14.492Z,20.50
2018-05-18T12:39:42.765Z,20.70
2018-05-18T12:42:11.171Z,20.40
2018-05-18T12:44:38.736Z,20.40
2018-05-18T12:47:06.250Z,20.40
2018-05-18T12:49:34.534Z,19.60
2018-05-18T12:52:02.814Z,19.50
2018-05-18T12:54:30.384Z,19.50
2018-05-18T12:56:57.876Z,19.30
2018-05-18T12:59:25.550Z,19.50
2018-05-18T13:01:53.013Z,19.90
2018-05-18T13:04:20.534Z,20.30
2018-05-18T13:06:48.147Z,20.60
2018-05-18T13:09:16.420Z,19.80
2018-05-18T13:11:44.721Z,20.10
2018-05-18T13:14:12.275Z,20.10
2018-05-18T13:16:39.828Z,20.20
2018-05-18T13:19:07.335Z,20.20
2018-05-18T13:21:34.911Z,20.50
2018-05-18T13:24:02.406Z,20.70
2018-05-18T13:26:29.948Z,20.70
2018-05-18T13:28:58.201Z,20.30
2018-05-18T13:31:25.724Z,20.30
2018-05-18T13:33:53.262Z,20.40
2018-05-18T13:36:20.783Z,20.00
2018-05-18T13:38:49.374Z,20.70
2018-05-18T13:41:17.420Z,20.60
2018-05-18T13:43:44.923Z,20.60
2018-05-18T13:46:12.468Z,20.30
2018-05-18T13:48:39.995Z,19.80
2018-05-18T13:51:07.498Z,20.20
2018-05-18T13:53:35.024Z,20.60
2018-05-18T13:56:03.301Z,20.70
2018-05-18T13:58:31.587Z,20.80
2018-05-18T14:00:59.105Z,20.80
2018-05-18T14:03:26.731Z,20.40
2018-05-18T14:05:54.230Z,20.50
2018-05-18T14:08:21.743Z,20.70
2018-05-18T14:10:49.248Z,20.70
2018-05-18T14:13:17.521Z,21.10
2018-05-18T14:15:45.812Z,21.20
2018-05-18T14:18:14.104Z,21.00
2018-05-18T14:20:41.987Z,21.00
2018-05-18T14:23:09.521Z,21.00
2018-05-18T14:25:37.042Z,21.10
2018-05-18T14:28:04.655Z,20.70
2018-05-18T14:30:32.169Z,20.90
2018-05-18T14:33:00.496Z,20.80
2018-05-18T14:35:28.030Z,20.70
2018-05-18T14:37:55.639Z,20.60
2018-05-18T14:40:23.144Z,20.40
2018-05-18T14:42:50.685Z,20.40
2018-05-18T14:45:18.955Z,19.80
2018-05-18T14:47:47.247Z,19.80
2018-05-18T14:50:14.772Z,19.70
2018-05-18T14:52:42.306Z,19.60
2018-05-18T14:55:09.817Z,19.70
2018-05-18T14:57:37.326Z,19.90
2018-05-18T15:00:04.823Z,20.20
2018-05-18T15:02:33.107Z,20.30
2018-05-18T15:05:00.598Z,20.20
2018-05-18T15:07:28.113Z,20.20
2018-05-18T15:09:55.694Z,20.40
2018-05-18T15:12:23.236Z,20.20
2018-05-18T15:14:50.802Z,20.10
2018-05-18T15:17:18.351Z,20.10
2018-05-18T15:19:46.028Z,20.10
2018-05-18T15:22:13.528Z,20.20
2018-05-18T15:24:41.039Z,20.40
2018-05-18T15:27:08.537Z,20.50
2018-05-18T15:29:36.895Z,20.40
2018-05-18T15:32:04.418Z,20.40
2018-05-18T15:34:31.966Z,20.30
2018-05-18T15:36:59.467Z,20.30
2018-05-18T15:39:26.962Z,20.40
2018-05-18T15:41:55.264Z,20.30
2018-05-18T15:44:22.759Z,20.20
2018-05-18T15:46:50.297Z,20.30
2018-05-18T15:49:17.869Z,20.10
2018-05-18T15:51:46.080Z,19.90
2018-05-18T15:54:14.341Z,19.90
2018-05-18T15:56:41.907Z,19.80
2018-05-18T15:59:09.495Z,20.00
2018-05-18T16:01:37.054Z,19.90
2018-05-18T16:04:04.586Z,20.10
2018-05-18T16:06:32.845Z,20.10
2018-05-18T16:09:00.353Z,20.10
2018-05-18T16:11:27.908Z,20.00
2018-05-18T16:13:55.429Z,20.00
2018-05-18T16:16:23.693Z,19.90
2018-05-18T16:18:51.203Z,19.90
2018-05-18T16:21:18.716Z,20.00
2018-05-18T16:23:47.002Z,19.60
2018-05-18T16:26:15.259Z,19.60
2018-05-18T16:28:42.759Z,19.50
2018-05-18T16:31:10.297Z,19.70
2018-05-18T16:33:38.575Z,19.60
2018-05-18T16:36:06.162Z,19.50
2018-05-18T16:38:33.645Z,19.50
2018-05-18T16:41:01.590Z,19.40
2018-05-18T16:43:29.111Z,19.20
2018-05-18T16:45:56.666Z,19.10
2018-05-18T16:48:24.945Z,19.30
2018-05-18T16:50:52.462Z,19.20
2018-05-18T16:53:19.979Z,19.10
2018-05-18T16:55:47.622Z,19.10
2018-05-18T16:58:15.288Z,19.10
2018-05-18T17:00:42.804Z,19.10
2018-05-18T17:03:10.322Z,18.80
2018-05-18T17:05:37.837Z,18.80
2018-05-18T17:08:06.218Z,18.40
2018-05-18T17:10:34.505Z,18.60
2018-05-18T17:13:01.993Z,18.50
2018-05-18T17:15:29.524Z,18.50
2018-05-18T17:17:57.034Z,18.50
2018-05-18T17:20:24.622Z,18.30
2018-05-18T17:22:52.893Z,18.30
2018-05-18T17:25:21.170Z,18.20
2018-05-18T17:27:49.441Z,18.20
2018-05-18T17:30:17.717Z,18.00
2018-05-18T17:32:45.980Z,17.90
2018-05-18T17:35:14.298Z,17.90
2018-05-18T17:37:41.813Z,17.80
2018-05-18T17:40:10.062Z,17.90
2018-05-18T17:42:37.667Z,17.80
2018-05-18T17:45:05.104Z,17.70
2018-05-18T17:47:33.383Z,17.80
2018-05-18T17:50:01.648Z,17.80
2018-05-18T17:52:29.913Z,17.70
2018-05-18T17:54:57.428Z,17.70
2018-05-18T17:57:24.954Z,17.70
2018-05-18T17:59:53.251Z,17.60
2018-05-18T18:02:20.811Z,17.60
2018-05-18T18:04:48.328Z,17.60
2018-05-18T18:07:16.592Z,17.70
2018-05-18T18:09:44.928Z,17.60
2018-05-18T18:12:12.448Z,17.50
2018-05-18T18:14:40.806Z,17.30
2018-05-18T18:17:08.294Z,17.30
2018-05-18T18:19:35.794Z,17.30
2018-05-18T18:22:03.299Z,17.20
2018-05-18T18:24:30.860Z,17.10
2018-05-18T18:26:58.360Z,17.00
2018-05-18T18:29:25.863Z,16.80
2018-05-18T18:31:54.243Z,16.80
2018-05-18T18:34:21.815Z,16.70
2018-05-18T18:36:49.318Z,16.70
2018-05-18T18:39:16.826Z,16.60
2018-05-18T18:41:44.332Z,16.60
2018-05-18T18:44:11.829Z,16.40
2018-05-18T18:46:40.131Z,16.30
2018-05-18T18:49:07.652Z,16.20
2018-05-18T18:51:35.926Z,16.20
2018-05-18T18:54:04.234Z,16.20
2018-05-18T18:56:31.733Z,16.10
2018-05-18T18:58:59.332Z,16.10
2018-05-18T19:01:26.896Z,16.10
2018-05-18T19:03:54.414Z,16.00
2018-05-18T19:06:21.938Z,16.00
2018-05-18T19:08:49.479Z,15.90
2018-05-18T19:11:17.006Z,15.80
2018-05-18T19:13:45.298Z,15.80
2018-05-18T19:16:12.817Z,15.70
2018-05-18T19:18:40.369Z,15.80
2018-05-18T19:21:07.902Z,15.70
2018-05-18T19:23:35.439Z,15.60
2018-05-18T19:26:02.930Z,15.60
2018-05-18T19:28:30.448Z,15.50
2018-05-18T19:30:57.973Z,15.30
2018-05-18T19:33:26.264Z,15.20
2018-05-18T19:35:53.776Z,15.20
2018-05-18T19:38:21.317Z,15.20
2018-05-18T19:40:48.830Z,15.20
2018-05-18T19:43:17.104Z,15.20
2018-05-18T19:45:45.457Z,15.10
2018-05-18T19:48:13.079Z,15.00
2018-05-18T19:50:40.546Z,15.10
2018-05-18T19:53:08.073Z,15.00
2018-05-18T19:55:35.601Z,15.00
2018-05-18T19:58:03.888Z,14.90
2018-05-18T20:00:31.387Z,14.90
2018-05-18T20:02:58.912Z,14.80
2018-05-18T20:05:26.411Z,14.80
2018-05-18T20:07:53.949Z,14.80
2018-05-18T20:10:21.470Z,14.80
2018-05-18T20:12:49.760Z,14.70
2018-05-18T20:15:17.328Z,14.60
2018-05-18T20:17:44.887Z,14.60
2018-05-18T20:20:12.502Z,14.50
2018-05-18T20:22:39.994Z,14.50
2018-05-18T20:25:07.592Z,14.50
2018-05-18T20:27:35.060Z,14.50
2018-05-18T20:30:02.559Z,14.40
2018-05-18T20:32:30.090Z,14.40
2018-05-18T20:34:58.438Z,14.30
2018-05-18T20:37:25.955Z,14.20
2018-05-18T20:39:53.515Z,14.20
2018-05-18T20:42:21.021Z,14.20
2018-05-18T20:44:48.541Z,14.10
2018-05-18T20:47:16.050Z,14.00
2018-05-18T20:49:44.327Z,13.90
2018-05-18T20:52:12.753Z,13.90
2018-05-18T20:54:40.264Z,13.80
2018-05-18T20:57:08.544Z,13.90
2018-05-18T20:59:36.824Z,14.00
2018-05-18T21:02:05.110Z,14.00
2018-05-18T21:04:32.679Z,13.90
2018-05-18T21:07:00.921Z,14.00
2018-05-18T21:09:29.198Z,14.00
2018-05-18T21:11:57.531Z,14.10
2018-05-18T21:14:25.264Z,14.00
2018-05-18T21:16:52.760Z,14.10
2018-05-18T21:19:20.379Z,14.10
2018-05-18T21:21:47.881Z,14.10
2018-05-18T21:24:16.238Z,14.30
2018-05-18T21:26:43.787Z,14.20
2018-05-18T21:29:11.312Z,14.30
2018-05-18T21:31:38.832Z,14.30
2018-05-18T21:34:06.355Z,14.40
2018-05-18T21:36:33.870Z,14.40
2018-05-18T21:39:02.144Z,14.50
2018-05-18T21:41:30.448Z,14.40
2018-05-18T21:43:57.988Z,14.40
2018-05-18T21:46:25.514Z,14.50
2018-05-18T21:48:53.039Z,14.50
2018-05-18T21:51:20.538Z,14.60
2018-05-18T21:53:48.833Z,14.50
2018-05-18T21:56:16.343Z,14.50
2018-05-18T21:58:43.970Z,14.50
2018-05-18T22:01:12.231Z,14.60
2018-05-18T22:03:39.732Z,14.60
2018-05-18T22:06:07.274Z,14.70
2018-05-18T22:08:34.766Z,14.70
2018-05-18T22:11:02.362Z,14.70
2018-05-18T22:13:29.910Z,14.70
2018-05-18T22:15:57.394Z,14.60
2018-05-18T22:18:24.902Z,14.60
2018-05-18T22:20:53.180Z,14.50
2018-05-18T22:23:21.465Z,14.40
2018-05-18T22:25:48.997Z,14.40
2018-05-18T22:28:16.524Z,14.40
2018-05-18T22:30:44.044Z,14.30
2018-05-18T22:33:11.551Z,14.30
2018-05-18T22:35:39.077Z,14.20
2018-05-18T22:38:06.570Z,14.20
2018-05-18T22:40:34.098Z,14.20
2018-05-18T22:43:01.604Z,14.20
2018-05-18T22:45:29.888Z,14.20
2018-05-18T22:47:58.176Z,14.10
2018-05-18T22:50:26.517Z,14.10
2018-05-18T22:52:54.098Z,14.10
2018-05-18T22:55:22.368Z,14.00
2018-05-18T22:57:50.657Z,13.90
2018-05-18T23:00:27.083Z,13.80
2018-05-18T23:02:54.586Z,13.90
2018-05-18T23:05:22.116Z,13.90
2018-05-18T23:07:50.411Z,13.90
2018-05-18T23:10:17.976Z,13.80
2018-05-18T23:12:45.526Z,13.80
2018-05-18T23:15:13.990Z,13.70
2018-05-18T23:17:42.288Z,13.80
2018-05-18T23:20:09.785Z,13.70
2018-05-18T23:22:37.407Z,13.70
2018-05-18T23:25:04.926Z,13.70
2018-05-18T23:27:32.581Z,13.60
2018-05-18T23:30:00.097Z,13.50
2018-05-18T23:32:27.614Z,13.40
2018-05-18T23:34:55.898Z,13.30
2018-05-18T23:37:23.395Z,13.20
2018-05-18T23:39:50.915Z,13.20
2018-05-18T23:42:18.436Z,13.10
2018-05-18T23:44:46.154Z,13.10
2018-05-18T23:47:13.676Z,13.00
2018-05-18T23:49:41.972Z,13.10
2018-05-18T23:52:09.495Z,13.10
2018-05-18T23:54:37.031Z,13.10
2018-05-18T23:57:04.556Z,13.00
2018-05-18T23:59:32.088Z,13.00
